createdAt,value
2018-02-25T00:00:57.601Z,4.30
2018-02-25T00:01:57.601Z,4.40
2018-02-25T00:02:57.631Z,3.90
2018-02-25T00:03:57.570Z,4.50
2018-02-25T00:04:57.582Z,4.50
2018-02-25T00:05:57.567Z,4.40
2018-02-25T00:06:57.573Z,4.30
2018-02-25T00:07:57.559Z,4.30
2018-02-25T00:08:57.559Z,4.00
2018-02-25T00:09:57.570Z,4.50
2018-02-25T00:10:57.568Z,4.90
2018-02-25T00:11:57.541Z,4.10
2018-02-25T00:12:57.531Z,3.50
2018-02-25T00:13:57.555Z,4.60
2018-02-25T00:14:57.558Z,4.30
2018-02-25T00:15:57.536Z,4.10
2018-02-25T00:16:57.522Z,4.00
2018-02-25T00:17:57.510Z,4.20
2018-02-25T00:18:57.520Z,4.30
2018-02-25T00:19:57.498Z,4.60
2018-02-25T00:20:57.512Z,4.20
2018-02-25T00:21:57.537Z,4.90
2018-02-25T00:22:57.505Z,4.90
2018-02-25T00:23:57.507Z,4.40
2018-02-25T00:24:57.541Z,4.40
2018-02-25T00:25:58.163Z,4.20
2018-02-25T00:26:57.459Z,4.50
2018-02-25T00:27:57.455Z,4.40
2018-02-25T00:28:57.540Z,4.10
2018-02-25T00:29:57.453Z,4.40
2018-02-25T00:30:57.498Z,3.90
2018-02-25T00:31:57.455Z,4.00
2018-02-25T00:32:57.459Z,4.80
2018-02-25T00:33:57.424Z,4.30
2018-02-25T00:34:57.453Z,4.40
2018-02-25T00:35:57.427Z,4.90
2018-02-25T00:36:57.451Z,4.30
2018-02-25T00:37:57.406Z,4.10
2018-02-25T00:38:57.490Z,4.10
2018-02-25T00:39:57.397Z,4.10
2018-02-25T00:40:57.389Z,4.40
2018-02-25T00:41:57.390Z,4.50
2018-02-25T00:42:57.395Z,4.40
2018-02-25T00:43:57.402Z,4.00
2018-02-25T00:44:57.385Z,4.80
2018-02-25T00:45:57.388Z,4.40
2018-02-25T00:46:57.405Z,5.20
2018-02-25T00:47:57.360Z,4.70
2018-02-25T00:48:57.381Z,4.20
2018-02-25T00:49:57.373Z,4.80
2018-02-25T00:50:57.381Z,4.90
2018-02-25T00:51:57.355Z,4.90
2018-02-25T00:52:57.366Z,4.70
2018-02-25T00:53:57.320Z,4.40
2018-02-25T00:54:57.323Z,4.50
2018-02-25T00:55:57.321Z,4.50
2018-02-25T00:56:57.363Z,4.30
2018-02-25T00:57:57.298Z,4.50
2018-02-25T00:58:57.335Z,4.70
2018-02-25T00:59:58.163Z,4.10
2018-02-25T01:00:57.298Z,4.00
2018-02-25T01:01:57.309Z,5.00
2018-02-25T01:02:57.295Z,5.10
2018-02-25T01:03:57.274Z,4.30
2018-02-25T01:04:57.264Z,5.30
2018-02-25T01:05:57.280Z,4.70
2018-02-25T01:06:57.286Z,4.50
2018-02-25T01:07:57.257Z,4.70
2018-02-25T01:08:57.263Z,4.50
2018-02-25T01:09:57.266Z,4.40
2018-02-25T01:10:57.283Z,4.60
2018-02-25T01:11:57.254Z,5.10
2018-02-25T01:12:57.234Z,4.90
2018-02-25T01:13:57.237Z,4.30
2018-02-25T01:14:57.231Z,4.90
2018-02-25T01:15:57.316Z,4.80
2018-02-25T01:16:57.236Z,4.60
2018-02-25T01:17:57.225Z,4.50
2018-02-25T01:18:57.209Z,4.50
2018-02-25T01:19:57.211Z,4.60
2018-02-25T01:20:57.209Z,4.60
2018-02-25T01:21:57.182Z,5.20
2018-02-25T01:22:57.206Z,4.90
2018-02-25T01:23:57.183Z,4.20
2018-02-25T01:24:57.198Z,4.90
2018-02-25T01:25:57.180Z,5.10
2018-02-25T01:26:57.155Z,4.70
2018-02-25T01:27:57.216Z,5.00
2018-02-25T01:28:57.663Z,5.00
2018-02-25T01:29:57.139Z,4.80
2018-02-25T01:30:57.182Z,5.00
2018-02-25T01:31:57.143Z,4.90
2018-02-25T01:32:57.172Z,4.40
2018-02-25T01:33:57.126Z,4.40
2018-02-25T01:34:57.140Z,4.40
2018-02-25T01:35:57.139Z,4.80
2018-02-25T01:36:57.149Z,4.70
2018-02-25T01:37:57.116Z,5.00
2018-02-25T01:38:57.115Z,5.40
2018-02-25T01:39:57.121Z,4.90
2018-02-25T01:40:57.142Z,5.10
2018-02-25T01:41:57.102Z,4.60
2018-02-25T01:42:57.099Z,4.70
2018-02-25T01:43:57.078Z,4.90
2018-02-25T01:44:57.079Z,4.60
2018-02-25T01:45:57.116Z,4.90
2018-02-25T01:46:57.109Z,4.80
2018-02-25T01:47:57.056Z,4.70
2018-02-25T01:48:57.072Z,4.90
2018-02-25T01:49:57.045Z,4.70
2018-02-25T01:50:57.057Z,4.80
2018-02-25T01:51:57.039Z,4.90
2018-02-25T01:52:57.022Z,5.00
2018-02-25T01:53:57.061Z,4.90
2018-02-25T01:54:57.025Z,4.80
2018-02-25T01:55:57.023Z,4.80
2018-02-25T01:56:57.047Z,5.00
2018-02-25T01:57:57.016Z,5.00
2018-02-25T01:58:57.054Z,5.10
2018-02-25T01:59:57.020Z,5.40
2018-02-25T02:00:57.039Z,4.90
2018-02-25T02:01:56.992Z,5.10
2018-02-25T02:02:56.984Z,5.10
2018-02-25T02:03:56.969Z,4.80
2018-02-25T02:04:56.958Z,5.50
2018-02-25T02:05:56.965Z,4.60
2018-02-25T02:06:56.966Z,4.60
2018-02-25T02:07:56.958Z,4.90
2018-02-25T02:08:56.949Z,5.00
2018-02-25T02:09:56.939Z,5.00
2018-02-25T02:10:56.979Z,5.10
2018-02-25T02:11:56.933Z,5.40
2018-02-25T02:12:56.968Z,4.80
2018-02-25T02:13:56.933Z,5.30
2018-02-25T02:14:56.917Z,5.10
2018-02-25T02:15:56.933Z,5.30
2018-02-25T02:16:56.927Z,4.90
2018-02-25T02:17:56.894Z,4.70
2018-02-25T02:18:56.926Z,5.10
2018-02-25T02:19:56.895Z,5.20
2018-02-25T02:20:56.883Z,5.30
2018-02-25T02:21:56.889Z,5.40
2018-02-25T02:22:56.905Z,4.60
2018-02-25T02:23:56.869Z,4.70
2018-02-25T02:24:56.890Z,5.00
2018-02-25T02:25:56.857Z,4.80
2018-02-25T02:26:56.888Z,5.00
2018-02-25T02:27:56.847Z,5.00
2018-02-25T02:28:56.853Z,4.80
2018-02-25T02:29:56.838Z,4.70
2018-02-25T02:30:56.836Z,4.30
2018-02-25T02:31:56.850Z,4.30
2018-02-25T02:32:56.837Z,5.30
2018-02-25T02:33:56.847Z,5.10
2018-02-25T02:34:56.876Z,5.30
2018-02-25T02:35:56.856Z,4.90
2018-02-25T02:36:58.811Z,4.60
2018-02-25T02:37:56.803Z,4.60
2018-02-25T02:38:56.838Z,5.00
2018-02-25T02:39:56.823Z,5.30
2018-02-25T02:40:56.788Z,5.30
2018-02-25T02:41:56.804Z,5.20
2018-02-25T02:42:56.781Z,5.20
2018-02-25T02:43:56.774Z,4.80
2018-02-25T02:44:56.792Z,5.30
2018-02-25T02:45:56.774Z,5.10
2018-02-25T02:46:56.764Z,4.90
2018-02-25T02:47:56.762Z,5.00
2018-02-25T02:48:56.766Z,5.40
2018-02-25T02:49:56.769Z,5.30
2018-02-25T02:50:56.748Z,4.90
2018-02-25T02:51:56.711Z,4.90
2018-02-25T02:52:56.785Z,5.20
2018-02-25T02:53:56.721Z,5.30
2018-02-25T02:54:56.702Z,5.80
2018-02-25T02:55:56.710Z,5.50
2018-02-25T02:56:56.708Z,5.10
2018-02-25T02:57:56.699Z,5.20
2018-02-25T02:58:56.705Z,4.90
2018-02-25T02:59:56.691Z,5.00
2018-02-25T03:00:56.676Z,4.30
2018-02-25T03:01:56.701Z,5.10
2018-02-25T03:02:56.749Z,5.20
2018-02-25T03:03:56.723Z,5.20
2018-02-25T03:04:56.662Z,4.80
2018-02-25T03:05:56.642Z,4.90
2018-02-25T03:06:56.672Z,4.60
2018-02-25T03:07:56.676Z,5.40
2018-02-25T03:08:56.636Z,5.60
2018-02-25T03:09:56.681Z,5.60
2018-02-25T03:10:56.620Z,5.30
2018-02-25T03:11:56.653Z,4.90
2018-02-25T03:12:56.613Z,5.40
2018-02-25T03:13:56.626Z,5.20
2018-02-25T03:14:56.609Z,5.00
2018-02-25T03:15:57.178Z,5.40
2018-02-25T03:16:56.631Z,5.00
2018-02-25T03:17:56.622Z,5.50
2018-02-25T03:18:57.167Z,5.70
2018-02-25T03:19:56.611Z,5.30
2018-02-25T03:20:56.599Z,5.00
2018-02-25T03:21:56.599Z,5.50
2018-02-25T03:22:56.593Z,4.80
2018-02-25T03:23:56.548Z,6.00
2018-02-25T03:24:56.561Z,5.90
2018-02-25T03:25:56.560Z,5.50
2018-02-25T03:26:56.556Z,5.50
2018-02-25T03:27:56.555Z,4.90
2018-02-25T03:28:56.540Z,5.60
2018-02-25T03:29:56.553Z,5.70
2018-02-25T03:30:56.509Z,5.70
2018-02-25T03:31:56.526Z,5.90
2018-02-25T03:32:56.523Z,5.90
2018-02-25T03:33:56.493Z,5.20
2018-02-25T03:34:56.497Z,5.70
2018-02-25T03:35:56.502Z,5.60
2018-02-25T03:36:57.173Z,5.50
2018-02-25T03:37:56.509Z,5.80
2018-02-25T03:38:56.467Z,5.70
2018-02-25T03:39:56.533Z,5.80
2018-02-25T03:40:56.486Z,5.20
2018-02-25T03:41:56.468Z,5.70
2018-02-25T03:42:56.441Z,6.00
2018-02-25T03:43:56.515Z,5.40
2018-02-25T03:44:56.449Z,5.40
2018-02-25T03:45:56.441Z,5.80
2018-02-25T03:46:56.480Z,5.70
2018-02-25T03:47:56.483Z,5.50
2018-02-25T03:48:56.451Z,5.40
2018-02-25T03:49:56.434Z,5.90
2018-02-25T03:50:56.433Z,5.60
2018-02-25T03:51:56.408Z,5.90
2018-02-25T03:52:56.418Z,5.70
2018-02-25T03:53:56.427Z,5.60
2018-02-25T03:54:56.432Z,6.30
2018-02-25T03:55:56.436Z,5.80
2018-02-25T03:56:56.381Z,5.70
2018-02-25T03:57:56.396Z,5.60
2018-02-25T03:58:56.388Z,5.60
2018-02-25T03:59:56.362Z,5.80
2018-02-25T04:00:56.363Z,6.00
2018-02-25T04:01:56.350Z,6.00
2018-02-25T04:02:56.369Z,6.60
2018-02-25T04:03:56.328Z,5.80
2018-02-25T04:04:56.337Z,5.50
2018-02-25T04:05:56.319Z,5.90
2018-02-25T04:06:56.321Z,5.60
2018-02-25T04:07:56.309Z,5.50
2018-02-25T04:08:56.326Z,5.70
2018-02-25T04:09:56.300Z,5.60
2018-02-25T04:10:56.315Z,5.90
2018-02-25T04:11:56.287Z,5.90
2018-02-25T04:12:56.282Z,6.10
2018-02-25T04:13:56.294Z,5.60
2018-02-25T04:14:56.289Z,5.60
2018-02-25T04:15:56.277Z,5.90
2018-02-25T04:16:56.283Z,6.00
2018-02-25T04:17:56.263Z,5.90
2018-02-25T04:18:56.298Z,6.20
2018-02-25T04:19:56.257Z,6.50
2018-02-25T04:20:56.242Z,5.60
2018-02-25T04:21:56.237Z,5.60
2018-02-25T04:22:56.282Z,5.70
2018-02-25T04:23:57.167Z,5.60
2018-02-25T04:24:56.253Z,5.90
2018-02-25T04:25:56.220Z,5.90
2018-02-25T04:26:56.289Z,5.80
2018-02-25T04:27:56.256Z,6.10
2018-02-25T04:28:56.207Z,6.00
2018-02-25T04:29:56.209Z,5.80
2018-02-25T04:30:56.239Z,5.40
2018-02-25T04:31:56.193Z,6.10
2018-02-25T04:32:56.231Z,6.20
2018-02-25T04:33:56.177Z,5.80
2018-02-25T04:34:56.206Z,6.40
2018-02-25T04:35:56.229Z,5.90
2018-02-25T04:36:56.199Z,6.50
2018-02-25T04:37:56.163Z,5.60
2018-02-25T04:38:56.153Z,5.50
2018-02-25T04:39:56.670Z,5.90
2018-02-25T04:40:56.130Z,5.70
2018-02-25T04:41:56.128Z,6.10
2018-02-25T04:42:56.170Z,6.30
2018-02-25T04:43:56.130Z,6.30
2018-02-25T04:44:56.119Z,6.70
2018-02-25T04:45:56.128Z,6.50
2018-02-25T04:46:56.098Z,5.90
2018-02-25T04:47:56.121Z,5.80
2018-02-25T04:48:56.126Z,6.30
2018-02-25T04:49:56.127Z,5.60
2018-02-25T04:50:56.087Z,6.30
2018-02-25T04:51:56.075Z,5.60
2018-02-25T04:52:56.077Z,6.60
2018-02-25T04:53:56.069Z,5.70
2018-02-25T04:54:56.059Z,6.00
2018-02-25T04:55:56.190Z,6.30
2018-02-25T04:56:56.148Z,5.80
2018-02-25T04:57:56.082Z,5.70
2018-02-25T04:58:56.087Z,6.40
2018-02-25T04:59:56.041Z,6.30
2018-02-25T05:00:56.032Z,6.20
2018-02-25T05:01:56.029Z,6.30
2018-02-25T05:02:56.033Z,6.20
2018-02-25T05:03:56.042Z,6.00
2018-02-25T05:04:56.018Z,6.30
2018-02-25T05:05:56.024Z,6.20
2018-02-25T05:06:55.999Z,6.30
2018-02-25T05:07:55.991Z,6.90
2018-02-25T05:08:56.017Z,6.40
2018-02-25T05:09:56.012Z,7.00
2018-02-25T05:10:55.972Z,6.40
2018-02-25T05:11:55.979Z,6.50
2018-02-25T05:12:55.965Z,6.60
2018-02-25T05:13:56.672Z,5.90
2018-02-25T05:14:55.953Z,6.10
2018-02-25T05:15:55.967Z,6.50
2018-02-25T05:16:55.995Z,6.30
2018-02-25T05:17:55.941Z,6.10
2018-02-25T05:18:55.925Z,6.70
2018-02-25T05:19:55.942Z,5.70
2018-02-25T05:20:55.934Z,5.60
2018-02-25T05:21:55.911Z,6.40
2018-02-25T05:22:55.964Z,6.30
2018-02-25T05:23:55.938Z,6.30
2018-02-25T05:24:55.916Z,5.80
2018-02-25T05:25:55.913Z,6.20
2018-02-25T05:26:55.925Z,6.10
2018-02-25T05:27:55.883Z,6.10
2018-02-25T05:28:55.887Z,6.40
2018-02-25T05:29:55.870Z,6.00
2018-02-25T05:30:55.894Z,6.30
2018-02-25T05:31:55.882Z,6.40
2018-02-25T05:32:55.886Z,6.10
2018-02-25T05:33:55.872Z,6.20
2018-02-25T05:34:55.852Z,6.70
2018-02-25T05:35:55.828Z,6.40
2018-02-25T05:36:55.829Z,5.70
2018-02-25T05:37:55.830Z,6.40
2018-02-25T05:38:55.828Z,6.10
2018-02-25T05:39:55.811Z,6.90
2018-02-25T05:40:55.820Z,6.00
2018-02-25T05:41:55.832Z,6.30
2018-02-25T05:42:56.672Z,5.80
2018-02-25T05:43:55.789Z,6.20
2018-02-25T05:44:55.798Z,6.30
2018-02-25T05:45:55.779Z,6.60
2018-02-25T05:46:55.813Z,6.20
2018-02-25T05:47:55.763Z,6.80
2018-02-25T05:48:55.824Z,6.90
2018-02-25T05:49:55.765Z,7.00
2018-02-25T05:50:55.792Z,6.20
2018-02-25T05:51:55.752Z,6.50
2018-02-25T05:52:55.761Z,6.10
2018-02-25T05:53:55.738Z,6.20
2018-02-25T05:54:55.784Z,6.20
2018-02-25T05:55:55.722Z,6.90
2018-02-25T05:56:55.742Z,6.50
2018-02-25T05:57:55.707Z,6.70
2018-02-25T05:58:55.762Z,6.60
2018-02-25T05:59:55.708Z,6.10
2018-02-25T06:00:55.737Z,5.90
2018-02-25T06:01:55.694Z,6.30
2018-02-25T06:02:55.803Z,5.70
2018-02-25T06:03:55.728Z,6.30
2018-02-25T06:04:55.678Z,6.10
2018-02-25T06:05:55.657Z,6.50
2018-02-25T06:06:55.668Z,6.80
2018-02-25T06:07:55.662Z,6.40
2018-02-25T06:08:55.641Z,5.90
2018-02-25T06:09:55.664Z,6.30
2018-02-25T06:10:55.649Z,6.70
2018-02-25T06:11:55.651Z,6.00
2018-02-25T06:12:55.631Z,7.00
2018-02-25T06:13:55.618Z,6.20
2018-02-25T06:14:55.643Z,6.40
2018-02-25T06:15:55.608Z,6.00
2018-02-25T06:16:55.599Z,6.10
2018-02-25T06:17:55.609Z,6.00
2018-02-25T06:18:55.618Z,6.20
2018-02-25T06:19:55.604Z,5.80
2018-02-25T06:20:55.583Z,6.40
2018-02-25T06:21:55.590Z,6.30
2018-02-25T06:22:55.625Z,5.90
2018-02-25T06:23:55.577Z,6.00
2018-02-25T06:24:55.586Z,6.00
2018-02-25T06:25:55.569Z,6.20
2018-02-25T06:26:55.579Z,6.20
2018-02-25T06:27:55.539Z,6.20
2018-02-25T06:28:55.595Z,6.00
2018-02-25T06:29:55.569Z,6.20
2018-02-25T06:30:55.548Z,6.50
2018-02-25T06:31:55.545Z,5.90
2018-02-25T06:32:56.165Z,6.10
2018-02-25T06:33:55.514Z,6.40
2018-02-25T06:34:55.502Z,6.50
2018-02-25T06:35:55.524Z,6.40
2018-02-25T06:36:55.492Z,5.80
2018-02-25T06:37:55.503Z,6.40
2018-02-25T06:38:55.487Z,6.20
2018-02-25T06:39:55.467Z,5.80
2018-02-25T06:40:55.511Z,6.00
2018-02-25T06:41:55.470Z,6.20
2018-02-25T06:42:55.458Z,6.20
2018-02-25T06:43:55.451Z,6.40
2018-02-25T06:44:55.436Z,6.20
2018-02-25T06:45:55.441Z,6.20
2018-02-25T06:46:55.494Z,6.60
2018-02-25T06:47:55.467Z,6.10
2018-02-25T06:48:55.463Z,6.20
2018-02-25T06:49:55.417Z,6.00
2018-02-25T06:50:56.170Z,6.10
2018-02-25T06:51:55.413Z,5.90
2018-02-25T06:52:55.410Z,6.40
2018-02-25T06:53:56.169Z,6.30
2018-02-25T06:54:55.440Z,6.00
2018-02-25T06:55:55.412Z,6.50
2018-02-25T06:56:55.462Z,6.10
2018-02-25T06:57:55.381Z,6.40
2018-02-25T06:58:55.385Z,5.70
2018-02-25T06:59:55.376Z,5.90
2018-02-25T07:00:55.432Z,6.10
2018-02-25T07:01:55.375Z,6.30
2018-02-25T07:02:55.363Z,6.30
2018-02-25T07:03:55.342Z,6.00
2018-02-25T07:04:55.397Z,6.30
2018-02-25T07:05:55.341Z,6.40
2018-02-25T07:06:56.167Z,6.40
2018-02-25T07:07:55.332Z,6.20
2018-02-25T07:08:55.316Z,6.30
2018-02-25T07:09:55.322Z,6.30
2018-02-25T07:10:55.300Z,6.40
2018-02-25T07:11:55.302Z,6.70
2018-02-25T07:12:55.290Z,6.80
2018-02-25T07:13:55.296Z,6.00
2018-02-25T07:14:55.299Z,5.30
2018-02-25T07:15:55.273Z,6.20
2018-02-25T07:16:55.539Z,5.80
2018-02-25T07:17:55.260Z,6.00
2018-02-25T07:18:55.263Z,6.20
2018-02-25T07:19:55.251Z,6.20
2018-02-25T07:20:55.258Z,6.40
2018-02-25T07:21:55.260Z,6.80
2018-02-25T07:22:55.306Z,5.50
2018-02-25T07:23:55.226Z,6.90
2018-02-25T07:24:55.220Z,6.70
2018-02-25T07:25:55.225Z,6.20
2018-02-25T07:26:55.227Z,6.30
2018-02-25T07:27:55.224Z,6.20
2018-02-25T07:28:55.216Z,6.90
2018-02-25T07:29:55.221Z,6.50
2018-02-25T07:30:55.204Z,6.10
2018-02-25T07:31:55.210Z,6.50
2018-02-25T07:32:55.172Z,6.20
2018-02-25T07:33:55.201Z,6.90
2018-02-25T07:34:55.228Z,6.60
2018-02-25T07:35:55.159Z,7.10
2018-02-25T07:36:55.160Z,7.20
2018-02-25T07:37:55.165Z,7.10
2018-02-25T07:38:55.207Z,7.00
2018-02-25T07:39:55.180Z,6.70
2018-02-25T07:40:55.164Z,6.70
2018-02-25T07:41:55.259Z,6.50
2018-02-25T07:42:55.146Z,5.60
2018-02-25T07:43:55.137Z,6.00
2018-02-25T07:44:55.119Z,6.30
2018-02-25T07:45:55.123Z,6.40
2018-02-25T07:46:55.177Z,6.30
2018-02-25T07:47:55.145Z,6.50
2018-02-25T07:48:55.124Z,6.50
2018-02-25T07:49:55.145Z,6.10
2018-02-25T07:50:55.103Z,6.60
2018-02-25T07:51:55.080Z,6.60
2018-02-25T07:52:55.090Z,6.30
2018-02-25T07:53:55.073Z,6.20
2018-02-25T07:54:55.150Z,6.40
2018-02-25T07:55:55.101Z,6.20
2018-02-25T07:56:55.138Z,6.70
2018-02-25T07:57:55.063Z,6.70
2018-02-25T07:58:55.080Z,6.40
2018-02-25T07:59:55.055Z,6.80
2018-02-25T08:00:55.067Z,6.10
2018-02-25T08:01:55.043Z,6.70
2018-02-25T08:02:55.062Z,6.10
2018-02-25T08:03:55.064Z,6.30
2018-02-25T08:04:55.053Z,6.80
2018-02-25T08:05:55.038Z,6.80
2018-02-25T08:06:55.077Z,6.50
2018-02-25T08:07:55.046Z,6.10
2018-02-25T08:08:55.076Z,6.30
2018-02-25T08:09:55.131Z,6.40
2018-02-25T08:10:55.032Z,6.60
2018-02-25T08:11:55.032Z,6.30
2018-02-25T08:12:55.089Z,6.00
2018-02-25T08:13:55.026Z,6.50
2018-02-25T08:14:55.037Z,6.50
2018-02-25T08:15:55.039Z,6.30
2018-02-25T08:16:55.049Z,6.30
2018-02-25T08:17:55.034Z,6.00
2018-02-25T08:18:55.078Z,5.70
2018-02-25T08:19:55.024Z,5.90
2018-02-25T08:20:55.023Z,6.30
2018-02-25T08:21:55.020Z,6.50
2018-02-25T08:22:55.678Z,6.20
2018-02-25T08:23:55.014Z,6.20
2018-02-25T08:24:55.028Z,5.90
2018-02-25T08:25:55.049Z,5.40
2018-02-25T08:26:55.039Z,5.60
2018-02-25T08:27:55.014Z,5.70
2018-02-25T08:28:55.018Z,6.20
2018-02-25T08:29:55.015Z,6.00
2018-02-25T08:30:55.065Z,6.00
2018-02-25T08:31:55.031Z,5.70
2018-02-25T08:32:55.049Z,6.40
2018-02-25T08:33:55.013Z,6.40
2018-02-25T08:34:55.041Z,6.00
2018-02-25T08:35:55.058Z,6.50
2018-02-25T08:36:55.005Z,6.30
2018-02-25T08:37:55.043Z,6.00
2018-02-25T08:38:55.045Z,6.50
2018-02-25T08:39:55.023Z,6.00
2018-02-25T08:40:54.997Z,6.10
2018-02-25T08:41:55.082Z,6.30
2018-02-25T08:42:55.005Z,5.50
2018-02-25T08:43:55.025Z,6.10
2018-02-25T08:44:55.014Z,6.00
2018-02-25T08:45:55.022Z,5.30
2018-02-25T08:46:55.027Z,6.10
2018-02-25T08:47:55.024Z,5.80
2018-02-25T08:48:54.994Z,5.90
2018-02-25T08:49:55.000Z,5.70
2018-02-25T08:50:55.044Z,5.60
2018-02-25T08:51:54.996Z,6.00
2018-02-25T08:52:55.007Z,6.00
2018-02-25T08:53:54.985Z,5.80
2018-02-25T08:54:54.994Z,6.00
2018-02-25T08:55:55.033Z,5.50
2018-02-25T08:56:55.062Z,5.80
2018-02-25T08:57:55.005Z,5.40
2018-02-25T08:58:55.035Z,5.40
2018-02-25T08:59:54.976Z,5.30
2018-02-25T09:00:55.057Z,5.20
2018-02-25T09:01:54.977Z,5.00
2018-02-25T09:02:54.982Z,5.80
2018-02-25T09:03:54.975Z,6.00
2018-02-25T09:04:54.979Z,5.00
2018-02-25T09:05:54.972Z,5.30
2018-02-25T09:06:55.128Z,5.20
2018-02-25T09:07:54.969Z,5.10
2018-02-25T09:08:54.995Z,5.80
2018-02-25T09:09:54.988Z,5.60
2018-02-25T09:10:54.996Z,5.10
2018-02-25T09:11:54.967Z,5.00
2018-02-25T09:12:54.981Z,5.10
2018-02-25T09:13:54.977Z,5.20
2018-02-25T09:14:54.970Z,4.80
2018-02-25T09:15:54.984Z,5.00
2018-02-25T09:16:54.986Z,5.10
2018-02-25T09:17:54.967Z,5.00
2018-02-25T09:18:54.963Z,5.10
2018-02-25T09:19:55.032Z,4.80
2018-02-25T09:20:54.979Z,4.80
2018-02-25T09:21:54.983Z,4.50
2018-02-25T09:22:54.983Z,4.80
2018-02-25T09:23:55.022Z,5.10
2018-02-25T09:24:54.992Z,5.30
2018-02-25T09:25:54.981Z,5.20
2018-02-25T09:26:54.980Z,5.20
2018-02-25T09:27:55.062Z,5.00
2018-02-25T09:28:55.029Z,5.10
2018-02-25T09:29:54.978Z,4.90
2018-02-25T09:30:55.066Z,5.10
2018-02-25T09:31:54.980Z,4.70
2018-02-25T09:32:54.999Z,4.50
2018-02-25T09:33:54.990Z,4.70
2018-02-25T09:34:55.041Z,4.30
2018-02-25T09:35:55.068Z,4.80
2018-02-25T09:36:55.000Z,4.60
2018-02-25T09:37:55.691Z,4.50
2018-02-25T09:38:55.013Z,4.50
2018-02-25T09:39:55.005Z,4.40
2018-02-25T09:40:55.019Z,4.20
2018-02-25T09:41:55.016Z,4.00
2018-02-25T09:42:55.055Z,5.00
2018-02-25T09:43:55.027Z,4.80
2018-02-25T09:44:55.035Z,4.30
2018-02-25T09:45:55.026Z,4.30
2018-02-25T09:46:55.019Z,4.70
2018-02-25T09:47:55.034Z,4.90
2018-02-25T09:48:55.018Z,4.50
2018-02-25T09:49:55.028Z,4.00
2018-02-25T09:50:55.126Z,4.60
2018-02-25T09:51:55.032Z,4.30
2018-02-25T09:52:55.034Z,4.50
2018-02-25T09:53:55.106Z,4.20
2018-02-25T09:54:55.037Z,4.50
2018-02-25T09:55:55.212Z,4.60
2018-02-25T09:56:55.070Z,4.90
2018-02-25T09:57:55.111Z,4.70
2018-02-25T09:58:55.080Z,4.20
2018-02-25T09:59:55.125Z,4.20
2018-02-25T10:00:55.057Z,4.30
2018-02-25T10:01:55.060Z,4.40
2018-02-25T10:02:55.071Z,4.00
2018-02-25T10:03:55.180Z,3.90
2018-02-25T10:04:55.084Z,3.90
2018-02-25T10:05:55.701Z,4.10
2018-02-25T10:06:55.110Z,3.60
2018-02-25T10:07:55.080Z,4.10
2018-02-25T10:08:55.140Z,4.00
2018-02-25T10:09:55.161Z,4.30
2018-02-25T10:10:55.126Z,4.10
2018-02-25T10:11:55.140Z,3.90
2018-02-25T10:12:55.097Z,4.10
2018-02-25T10:13:55.135Z,3.90
2018-02-25T10:14:55.103Z,3.70
2018-02-25T10:15:55.166Z,4.10
2018-02-25T10:16:55.145Z,4.10
2018-02-25T10:17:55.150Z,4.00
2018-02-25T10:18:55.113Z,4.10
2018-02-25T10:19:55.214Z,4.30
2018-02-25T10:20:55.122Z,4.20
2018-02-25T10:21:55.718Z,3.90
2018-02-25T10:22:55.200Z,3.70
2018-02-25T10:23:55.176Z,3.90
2018-02-25T10:24:55.137Z,3.70
2018-02-25T10:25:55.192Z,3.80
2018-02-25T10:26:55.141Z,3.70
2018-02-25T10:27:55.151Z,3.90
2018-02-25T10:28:55.189Z,3.70
2018-02-25T10:29:55.192Z,3.80
2018-02-25T10:30:55.150Z,4.00
2018-02-25T10:31:55.169Z,3.80
2018-02-25T10:32:55.177Z,4.20
2018-02-25T10:33:55.173Z,4.10
2018-02-25T10:34:55.299Z,3.90
2018-02-25T10:35:55.196Z,3.90
2018-02-25T10:36:55.178Z,3.90
2018-02-25T10:37:55.191Z,4.30
2018-02-25T10:38:55.207Z,4.20
2018-02-25T10:39:55.225Z,4.20
2018-02-25T10:40:55.177Z,3.80
2018-02-25T10:41:55.240Z,3.90
2018-02-25T10:42:55.231Z,3.70
2018-02-25T10:43:55.206Z,3.70
2018-02-25T10:44:55.269Z,3.90
2018-02-25T10:45:55.267Z,4.10
2018-02-25T10:46:55.252Z,4.20
2018-02-25T10:47:55.298Z,3.70
2018-02-25T10:48:55.232Z,3.80
2018-02-25T10:49:55.293Z,4.00
2018-02-25T10:50:55.302Z,3.80
2018-02-25T10:51:55.230Z,3.50
2018-02-25T10:52:55.238Z,3.40
2018-02-25T10:53:55.286Z,3.60
2018-02-25T10:54:55.241Z,3.70
2018-02-25T10:55:55.338Z,3.20
2018-02-25T10:56:55.244Z,3.40
2018-02-25T10:57:55.281Z,3.80
2018-02-25T10:58:55.281Z,3.10
2018-02-25T10:59:55.295Z,3.20
2018-02-25T11:00:55.286Z,3.60
2018-02-25T11:01:55.298Z,3.60
2018-02-25T11:02:55.307Z,3.60
2018-02-25T11:03:55.317Z,3.80
2018-02-25T11:04:55.326Z,3.90
2018-02-25T11:05:55.325Z,3.80
2018-02-25T11:06:55.295Z,3.60
2018-02-25T11:07:55.301Z,3.20
2018-02-25T11:08:55.330Z,3.10
2018-02-25T11:09:55.365Z,3.10
2018-02-25T11:10:55.295Z,3.40
2018-02-25T11:11:55.343Z,3.20
2018-02-25T11:12:55.304Z,3.10
2018-02-25T11:13:55.335Z,3.50
2018-02-25T11:14:55.328Z,3.20
2018-02-25T11:15:55.324Z,3.00
2018-02-25T11:16:55.340Z,2.90
2018-02-25T11:17:55.382Z,3.00
2018-02-25T11:18:55.350Z,3.30
2018-02-25T11:19:55.380Z,3.50
2018-02-25T11:20:55.340Z,3.20
2018-02-25T11:21:55.483Z,3.00
2018-02-25T11:22:55.358Z,3.00
2018-02-25T11:23:55.383Z,3.20
2018-02-25T11:24:55.370Z,2.80
2018-02-25T11:25:55.438Z,2.90
2018-02-25T11:26:55.374Z,3.20
2018-02-25T11:27:55.388Z,3.40
2018-02-25T11:28:55.378Z,3.30
2018-02-25T11:29:55.401Z,2.60
2018-02-25T11:30:55.377Z,2.70
2018-02-25T11:31:55.389Z,2.80
2018-02-25T11:32:55.403Z,3.00
2018-02-25T11:33:55.431Z,3.20
2018-02-25T11:34:55.410Z,3.00
2018-02-25T11:35:55.455Z,2.90
2018-02-25T11:36:55.428Z,3.10
2018-02-25T11:37:55.435Z,3.00
2018-02-25T11:38:55.542Z,2.90
2018-02-25T11:39:55.423Z,2.90
2018-02-25T11:40:55.447Z,3.50
2018-02-25T11:41:55.462Z,3.10
2018-02-25T11:42:55.480Z,3.10
2018-02-25T11:43:55.488Z,3.60
2018-02-25T11:44:55.485Z,3.50
2018-02-25T11:45:55.494Z,3.80
2018-02-25T11:46:55.492Z,3.70
2018-02-25T11:47:55.507Z,3.80
2018-02-25T11:48:55.454Z,3.80
2018-02-25T11:49:55.607Z,4.20
2018-02-25T11:50:55.456Z,4.00
2018-02-25T11:51:55.457Z,3.60
2018-02-25T11:52:55.474Z,4.30
2018-02-25T11:53:55.459Z,3.80
2018-02-25T11:54:55.496Z,3.90
2018-02-25T11:55:55.470Z,3.90
2018-02-25T11:56:55.491Z,3.90
2018-02-25T11:57:55.481Z,3.70
2018-02-25T11:58:55.519Z,3.90
2018-02-25T11:59:55.476Z,3.60
2018-02-25T12:00:55.507Z,3.70
2018-02-25T12:01:55.517Z,3.40
2018-02-25T12:02:55.517Z,3.70
2018-02-25T12:03:55.529Z,4.00
2018-02-25T12:04:55.508Z,3.70
2018-02-25T12:05:55.510Z,3.80
2018-02-25T12:06:56.255Z,3.70
2018-02-25T12:07:55.558Z,3.70
2018-02-25T12:08:55.510Z,3.40
2018-02-25T12:09:55.534Z,3.90
2018-02-25T12:10:55.518Z,3.30
2018-02-25T12:11:55.512Z,3.70
2018-02-25T12:12:55.537Z,3.70
2018-02-25T12:13:55.544Z,3.40
2018-02-25T12:14:59.278Z,4.10
2018-02-25T12:15:55.587Z,4.10
2018-02-25T12:16:55.548Z,3.40
2018-02-25T12:17:55.605Z,3.30
2018-02-25T12:18:55.574Z,3.60
2018-02-25T12:19:55.524Z,3.60
2018-02-25T12:20:55.515Z,3.40
2018-02-25T12:21:55.569Z,3.50
2018-02-25T12:22:55.513Z,3.20
2018-02-25T12:23:55.525Z,3.30
2018-02-25T12:24:55.539Z,3.10
2018-02-25T12:25:55.567Z,4.10
2018-02-25T12:26:55.515Z,3.60
2018-02-25T12:27:55.525Z,3.60
2018-02-25T12:28:55.580Z,3.10
2018-02-25T12:29:55.522Z,3.00
2018-02-25T12:30:55.545Z,3.50
2018-02-25T12:31:55.539Z,3.00
2018-02-25T12:32:55.514Z,3.40
2018-02-25T12:33:55.536Z,3.70
2018-02-25T12:34:55.509Z,3.60
2018-02-25T12:35:55.554Z,3.60
2018-02-25T12:36:55.507Z,3.40
2018-02-25T12:37:55.500Z,3.30
2018-02-25T12:38:55.507Z,3.60
2018-02-25T12:39:55.527Z,3.40
2018-02-25T12:40:55.501Z,3.10
2018-02-25T12:41:55.515Z,3.30
2018-02-25T12:42:55.487Z,3.40
2018-02-25T12:43:55.529Z,2.70
2018-02-25T12:44:55.534Z,2.70
2018-02-25T12:45:55.528Z,3.00
2018-02-25T12:46:55.505Z,2.90
2018-02-25T12:47:55.482Z,3.30
2018-02-25T12:48:55.517Z,3.00
2018-02-25T12:49:55.484Z,3.20
2018-02-25T12:50:55.604Z,3.00
2018-02-25T12:51:55.537Z,3.30
2018-02-25T12:52:55.482Z,3.30
2018-02-25T12:53:55.528Z,3.40
2018-02-25T12:54:55.486Z,3.20
2018-02-25T12:55:55.529Z,3.30
2018-02-25T12:56:55.466Z,3.00
2018-02-25T12:57:55.473Z,2.80
2018-02-25T12:58:55.487Z,3.00
2018-02-25T12:59:55.499Z,3.10
2018-02-25T13:00:55.527Z,3.30
2018-02-25T13:01:55.467Z,3.10
2018-02-25T13:02:55.454Z,2.90
2018-02-25T13:03:55.449Z,3.20
2018-02-25T13:04:55.491Z,3.40
2018-02-25T13:05:55.521Z,2.80
2018-02-25T13:06:55.539Z,3.00
2018-02-25T13:07:55.444Z,3.00
2018-02-25T13:08:55.497Z,3.10
2018-02-25T13:09:55.468Z,2.90
2018-02-25T13:10:55.442Z,3.40
2018-02-25T13:11:55.422Z,2.90
2018-02-25T13:12:55.438Z,3.40
2018-02-25T13:13:55.470Z,3.30
2018-02-25T13:14:55.422Z,3.20
2018-02-25T13:15:55.409Z,3.10
2018-02-25T13:16:55.446Z,2.90
2018-02-25T13:17:55.459Z,3.00
2018-02-25T13:18:55.438Z,3.20